WB8ZGM-13 Weather Reports


Display with metric or nautical units.
time (UTC)temp
F
wind
direction
speed
MPH
gust
MPH
rain 1hr
in
rain 24hr
in
rain mn
in
humidity
%
barometer
mb
20260510060010 52 158 0.0 0.0 0.00 0.00 0.00 99 995.5
20260510054440 53 121 0.0 0.0 0.00 0.00 0.00 99 995.4
20260510052939 53 193 0.0 0.0 0.00 0.00 0.00 99 995.5
20260510051409 53 158 0.0 0.0 0.00 0.00 0.00 99 995.4
20260510045839 54 120 0.0 0.0 0.00 0.00 0.00 99 995.4
20260510044309 54 135 0.0 0.0 0.00 0.00 0.00 99 995.3
20260510042739 54 202 0.0 0.0 0.00 0.00 0.00 99 995.2
20260510041209 55 180 0.0 0.0 0.00 0.00 0.00 99 995.3
20260510035709 55 158 0.0 0.0 0.00 0.00 0.00 98 995.1
20260510034209 56 208 0.0 0.0 0.00 0.00 0.00 97 995.2
20260510032639 57 158 0.0 0.0 0.00 0.00 0.00 94 995.1
20260510031109 58 180 0.0 0.0 0.00 0.00 0.00 94 995.0
20260510025539 59 158 0.0 0.0 0.00 0.00 0.00 91 994.9
20260510024009 59 155 0.0 0.0 0.00 0.00 0.00 91 994.7
20260510022509 60 180 0.0 0.0 0.00 0.00 0.00 90 994.4
20260510021009 61 112 0.0 0.0 0.00 0.00 0.00 88 994.2
20260510015509 63 180 0.0 0.0 0.00 0.00 0.00 85 994.2
20260510014009 64 158 0.0 0.0 0.00 0.00 0.00 84 994.0
20260510012509 65 141 0.0 0.0 0.00 0.00 0.00 79 993.7
20260510011009 67 158 0.0 0.0 0.00 0.00 0.00 74 993.5
20260510005439 70 161 0.0 0.0 0.00 0.00 0.00 70 993.3
20260510003909 73 112 0.0 0.0 0.00 0.00 0.00 66 993.2
20260510002339 76 112 0.0 0.0 0.00 0.00 0.00 57 993.0
20260510000809 79 202 0.0 0.0 0.00 0.00 0.00 50 993.1
20260509235239 80 202 0.0 0.0 0.00 0.00 0.00 48 992.9
20260509233739 82 270 0.0 0.0 0.00 0.00 0.00 44 992.9
20260509232209 84 223 0.0 0.0 0.00 0.00 0.00 45 992.7
20260509230639 86 281 0.0 0.0 0.00 0.00 0.00 42 992.7
20260509225109 85 356 0.0 0.0 0.00 0.00 0.00 46 992.4
20260509223539 84 297 0.0 2.0 0.00 0.00 0.00 45 992.5
20260509222038 80 352 0.0 0.0 0.00 0.00 0.00 53 992.5
20260509220538 82 282 0.0 0.0 0.00 0.00 0.00 49 992.5
20260509215038 82 267 0.0 0.0 0.00 0.00 0.00 49 992.5
20260509213509 82 264 2.0 6.0 0.00 0.00 0.00 50 992.4
20260509212008 80 220 0.0 0.0 0.00 0.00 0.00 52 992.3
20260509210438 81 179 0.0 3.0 0.00 0.00 0.00 56 992.4
20260509204908 78 212 0.0 0.0 0.00 0.00 0.00 62 992.5
20260509203338 78 310 0.0 0.0 0.00 0.00 0.00 54 992.3
20260509201838 79 230 0.0 0.0 0.00 0.00 0.00 55 992.5
20260509200308 79 227 0.0 0.0 0.00 0.00 0.00 57 992.7
20260509194738 80 34 1.0 3.0 0.00 0.00 0.00 61 992.9
20260509193238 81 268 0.0 0.0 0.00 0.00 0.00 56 993.1
20260509191708 81 149 0.0 0.0 0.00 0.00 0.00 60 993.1
20260509190138 78 139 0.0 0.0 0.00 0.00 0.00 65 993.3
20260509184608 79 315 2.0 3.0 0.00 0.00 0.00 65 993.2
20260509183038 77 112 5.0 6.0 0.00 0.00 0.00 68 993.2
20260509181538 75 142 1.0 0.0 0.00 0.00 0.00 72 993.2
20260509180038 74 190 2.0 5.0 0.00 0.00 0.00 72 993.0
20260509174538 75 68 1.0 6.0 0.00 0.00 0.00 71 993.0
20260509173008 75 159 2.0 7.0 0.00 0.00 0.00 71 992.9
20260509171507 75 202 3.0 5.0 0.00 0.00 0.00 72 993.3
20260509170007 75 83 3.0 5.0 0.00 0.00 0.00 72 993.4
20260509164437 76 123 0.0 0.0 0.00 0.00 0.00 66 993.5
20260509162907 76 334 0.0 0.0 0.00 0.00 0.00 69 993.5
20260509161337 76 196 1.0 0.0 0.00 0.00 0.00 69 993.5
20260509155837 73 210 3.0 6.0 0.00 0.00 0.00 72 993.5
20260509154337 71 206 0.0 0.0 0.00 0.00 0.00 77 993.6
20260509152807 71 243 2.0 2.0 0.00 0.00 0.00 77 993.3
20260509151307 70 294 2.0 3.0 0.00 0.00 0.00 79 993.2
20260509145737 70 265 0.0 2.0 0.00 0.00 0.00 78 993.1
20260509144207 69 114 2.0 2.0 0.00 0.00 0.00 80 993.0
20260509142637 69 117 3.0 5.0 0.00 0.00 0.00 80 993.0
20260509141107 69 239 5.0 6.0 0.00 0.00 0.00 79 992.8
20260509135607 70 150 0.0 0.0 0.00 0.00 0.00 77 992.9
20260509134037 70 198 2.0 8.0 0.00 0.00 0.00 77 992.8
20260509132537 67 234 5.0 6.0 0.00 0.00 0.00 82 992.8
20260509131037 66 224 3.0 7.0 0.00 0.00 0.00 84 992.8
20260509125507 64 223 0.0 0.0 0.00 0.00 0.00 87 993.0
20260509124007 62 228 0.0 0.0 0.00 0.00 0.00 90 992.9
20260509122437 60 180 3.0 6.0 0.00 0.00 0.00 94 992.9
20260509120907 57 155 3.0 2.0 0.00 0.00 0.00 99 992.7
20260509115407 55 12 0.0 0.0 0.00 0.00 0.00 99 992.5
20260509113907 53 145 0.0 0.0 0.00 0.00 0.00 99 992.3
20260509112407 53 270 0.0 0.0 0.00 0.00 0.00 99 992.1
20260509110906 53 235 0.0 0.0 0.00 0.00 0.00 99 992.0
20260509105407 53 197 0.0 0.0 0.00 0.00 0.00 99 992.0
20260509103836 52 152 0.0 0.0 0.00 0.00 0.00 99 992.3
20260509102306 52 180 0.0 0.0 0.00 0.00 0.00 99 992.3
20260509100736 52 180 0.0 0.0 0.00 0.00 0.00 99 992.5
20260509095236 52 180 0.0 0.0 0.00 0.00 0.00 99 992.6
20260509093706 53 168 0.0 0.0 0.00 0.00 0.00 99 992.4
20260509092136 52 173 0.0 0.0 0.00 0.00 0.00 99 992.7
20260509090636 52 180 0.0 0.0 0.00 0.00 0.00 99 992.8
20260509085136 52 180 0.0 0.0 0.00 0.00 0.00 99 992.9
20260509083636 52 202 0.0 0.0 0.00 0.00 0.00 99 992.5
20260509082106 51 180 0.0 0.0 0.00 0.00 0.00 99 992.2
20260509080536 51 180 0.0 0.0 0.00 0.00 0.00 99 992.3
20260509075006 51 202 0.0 0.0 0.00 0.00 0.00 99 992.3
20260509073436 50 180 0.0 0.0 0.00 0.00 0.00 99 992.2
20260509071906 51 180 0.0 0.0 0.00 0.00 0.00 99 992.4
20260509070406 51 180 0.0 0.0 0.00 0.00 0.00 99 992.7
20260509064906 51 178 0.0 0.0 0.00 0.00 0.00 98 993.1
20260509063336 52 180 0.0 0.0 0.00 0.00 0.00 94 993.0
20260509061836 53 180 0.0 0.0 0.00 0.00 0.00 94 993.0